createdAt,value
2023-03-02T00:02:03.813Z,9.68
2023-03-02T00:05:07.011Z,11.50
2023-03-02T00:08:10.008Z,8.32
2023-03-02T00:14:13.763Z,8.70
2023-03-02T00:17:15.636Z,9.18
2023-03-02T00:20:17.920Z,8.82
2023-03-02T00:23:19.833Z,8.48
2023-03-02T00:26:21.705Z,9.32
2023-03-02T00:29:23.772Z,8.32
2023-03-02T00:32:26.035Z,8.93
2023-03-02T00:35:28.032Z,10.45
2023-03-02T00:38:30.196Z,9.77
2023-03-02T00:41:34.723Z,7.07
2023-03-02T00:44:36.631Z,7.20
2023-03-02T00:47:39.129Z,8.60
2023-03-02T00:50:41.774Z,6.07
2023-03-02T00:53:43.748Z,6.40
2023-03-02T00:56:46.449Z,6.15
2023-03-02T00:59:48.969Z,7.00
2023-03-02T01:03:17.154Z,6.43
2023-03-02T01:06:21.005Z,6.50
2023-03-02T01:09:23.171Z,7.55
2023-03-02T01:12:25.020Z,9.02
2023-03-02T01:15:28.381Z,8.38
2023-03-02T01:18:34.429Z,6.93
2023-03-02T01:21:36.507Z,6.60
2023-03-02T01:24:39.577Z,5.80
2023-03-02T01:27:41.564Z,7.00
2023-03-02T01:30:50.627Z,7.18
2023-03-02T01:33:52.871Z,6.50
2023-03-02T01:36:54.819Z,6.53
2023-03-02T01:39:56.757Z,6.47
2023-03-02T01:43:02.621Z,7.38
2023-03-02T01:46:16.533Z,5.45
2023-03-02T01:49:25.553Z,5.75
2023-03-02T01:52:35.111Z,5.93
2023-03-02T01:55:39.103Z,5.47
2023-03-02T01:58:41.322Z,6.63
2023-03-02T02:01:47.588Z,7.53
2023-03-02T02:04:50.522Z,7.75
2023-03-02T02:10:55.404Z,7.03
2023-03-02T02:17:01.514Z,7.32
2023-03-02T02:20:29.454Z,8.82
2023-03-02T02:23:42.759Z,6.25
2023-03-02T02:29:58.341Z,4.47
2023-03-02T02:33:01.541Z,8.98
2023-03-02T02:36:09.568Z,6.30
2023-03-02T02:39:29.119Z,8.27
2023-03-02T02:42:35.779Z,4.93
2023-03-02T02:45:37.857Z,5.80
2023-03-02T02:48:40.115Z,6.37
2023-03-02T02:51:42.069Z,4.88
2023-03-02T02:54:47.297Z,7.55
2023-03-02T02:57:52.017Z,7.78
2023-03-02T03:00:56.263Z,6.15
2023-03-02T03:04:02.670Z,8.10
2023-03-02T03:07:06.617Z,6.13
2023-03-02T03:10:15.225Z,7.38
2023-03-02T03:13:17.381Z,7.43
2023-03-02T03:16:21.205Z,7.30
2023-03-02T03:19:30.793Z,7.47
2023-03-02T03:22:38.530Z,8.48
2023-03-02T03:25:42.492Z,9.70
2023-03-02T03:28:45.269Z,5.88
2023-03-02T03:31:47.335Z,6.22
2023-03-02T03:34:49.427Z,6.27
2023-03-02T03:38:00.002Z,7.13
2023-03-02T03:41:02.160Z,6.65
2023-03-02T03:44:04.875Z,7.43
2023-03-02T03:47:09.679Z,8.35
2023-03-02T03:50:12.123Z,8.43
2023-03-02T03:56:17.111Z,6.93
2023-03-02T03:59:23.334Z,7.40
2023-03-02T04:02:29.633Z,9.25
2023-03-02T04:05:31.824Z,7.87
2023-03-02T04:08:35.708Z,8.02
2023-03-02T04:11:41.240Z,9.20
2023-03-02T04:14:45.204Z,9.75
2023-03-02T04:17:50.674Z,8.15
2023-03-02T04:20:56.448Z,7.95
2023-03-02T04:23:58.452Z,9.15
2023-03-02T04:27:00.502Z,9.00
2023-03-02T04:30:05.231Z,9.88
2023-03-02T04:33:07.397Z,8.85
2023-03-02T04:39:15.875Z,7.10
2023-03-02T04:42:21.719Z,7.55
2023-03-02T04:45:26.687Z,8.60
2023-03-02T04:48:29.457Z,7.85
2023-03-02T04:51:34.437Z,6.75
2023-03-02T04:54:36.325Z,11.18
2023-03-02T04:57:38.198Z,7.95
2023-03-02T05:00:40.912Z,7.80
2023-03-02T05:03:42.988Z,9.55
2023-03-02T05:06:45.292Z,5.78
2023-03-02T05:09:47.164Z,9.55
2023-03-02T05:12:55.810Z,8.85
2023-03-02T05:16:01.371Z,8.82
2023-03-02T05:19:04.899Z,6.78
2023-03-02T05:22:08.988Z,6.03
2023-03-02T05:25:12.222Z,5.00
2023-03-02T05:28:14.086Z,5.30
2023-03-02T05:31:23.435Z,5.78
2023-03-02T05:34:28.174Z,9.93
2023-03-02T05:37:32.676Z,6.03
2023-03-02T05:40:40.012Z,10.20
2023-03-02T05:43:41.875Z,5.82
2023-03-02T05:46:43.760Z,8.27
2023-03-02T05:49:46.037Z,10.15
2023-03-02T05:52:48.526Z,17.67
2023-03-02T05:55:53.116Z,8.98
2023-03-02T05:58:57.377Z,14.35
2023-03-02T06:01:59.556Z,8.32
2023-03-02T06:05:01.549Z,6.60
2023-03-02T06:08:04.054Z,7.82
2023-03-02T06:11:05.889Z,8.95
2023-03-02T06:14:07.802Z,7.72
2023-03-02T06:17:11.711Z,7.60
2023-03-02T06:20:14.843Z,8.60
2023-03-02T06:23:17.136Z,9.95
2023-03-02T06:26:19.046Z,8.50
2023-03-02T06:29:22.555Z,9.07
2023-03-02T06:32:27.004Z,10.95
2023-03-02T06:35:29.265Z,5.18
2023-03-02T06:38:32.285Z,8.75
2023-03-02T06:41:34.462Z,9.35
2023-03-02T06:44:36.475Z,9.13
2023-03-02T06:47:38.844Z,6.70
2023-03-02T06:50:40.724Z,8.60
2023-03-02T06:53:42.574Z,8.77
2023-03-02T06:56:44.449Z,11.23
2023-03-02T06:59:46.358Z,9.13
2023-03-02T07:02:50.224Z,9.98
2023-03-02T07:05:52.346Z,12.07
2023-03-02T07:08:54.298Z,12.30
2023-03-02T07:11:58.647Z,27.45
2023-03-02T07:15:04.081Z,30.55
2023-03-02T07:18:06.159Z,10.50
2023-03-02T07:21:09.443Z,16.90
2023-03-02T07:24:11.368Z,15.57
2023-03-02T07:27:16.223Z,8.63
2023-03-02T07:30:21.343Z,8.77
2023-03-02T07:33:23.337Z,11.48
2023-03-02T07:36:26.364Z,9.82
2023-03-02T07:42:30.153Z,16.40
2023-03-02T07:45:33.748Z,10.13
2023-03-02T07:48:35.816Z,12.63
2023-03-02T07:51:37.704Z,8.00
2023-03-02T07:54:39.541Z,10.57
2023-03-02T07:57:41.429Z,18.33
2023-03-02T08:01:03.411Z,7.88
2023-03-02T08:04:05.416Z,8.18
2023-03-02T08:07:07.391Z,8.30
2023-03-02T08:10:12.281Z,9.23
2023-03-02T08:13:14.207Z,8.25
2023-03-02T08:16:16.556Z,20.67
2023-03-02T08:19:20.710Z,11.88
2023-03-02T08:22:24.805Z,8.02
2023-03-02T08:25:26.696Z,11.70
2023-03-02T08:28:28.681Z,15.18
2023-03-02T08:31:31.326Z,16.67
2023-03-02T08:34:33.744Z,9.43
2023-03-02T08:37:35.746Z,7.83
2023-03-02T08:40:41.403Z,9.30
2023-03-02T08:43:43.811Z,7.32
2023-03-02T08:46:45.690Z,7.60
2023-03-02T08:49:48.277Z,8.70
2023-03-02T08:52:50.323Z,7.50
2023-03-02T08:55:54.621Z,8.38
2023-03-02T08:58:59.876Z,11.93
2023-03-02T09:02:10.257Z,8.80
2023-03-02T09:05:12.465Z,9.00
2023-03-02T09:08:14.604Z,9.05
2023-03-02T09:11:16.577Z,6.73
2023-03-02T09:14:18.470Z,5.72
2023-03-02T09:17:20.308Z,7.57
2023-03-02T09:20:22.164Z,6.60
2023-03-02T09:23:25.769Z,10.00
2023-03-02T09:26:29.777Z,7.03
2023-03-02T09:29:31.695Z,10.18
2023-03-02T09:32:33.939Z,8.13
2023-03-02T09:35:38.741Z,6.50
2023-03-02T09:38:40.737Z,7.10
2023-03-02T09:42:06.394Z,9.10
2023-03-02T09:45:36.218Z,6.78
2023-03-02T09:49:02.050Z,6.88
2023-03-02T09:52:20.193Z,8.73
2023-03-02T09:55:29.817Z,11.80
2023-03-02T09:58:37.824Z,7.40
2023-03-02T10:01:47.255Z,8.50
2023-03-02T10:04:53.452Z,6.15
2023-03-02T10:07:57.841Z,8.25
2023-03-02T10:11:22.508Z,9.07
2023-03-02T10:14:42.090Z,7.30
2023-03-02T10:18:22.609Z,8.00
2023-03-02T10:21:30.102Z,10.18
2023-03-02T10:24:41.574Z,9.77
2023-03-02T10:27:50.295Z,6.45
2023-03-02T10:31:08.429Z,4.30
2023-03-02T10:34:13.402Z,5.43
2023-03-02T10:37:19.540Z,5.22
2023-03-02T10:40:46.614Z,5.03
2023-03-02T10:43:58.639Z,4.65
2023-03-02T10:47:00.602Z,4.82
2023-03-02T10:50:02.656Z,7.50
2023-03-02T10:53:08.783Z,5.90
2023-03-02T10:56:20.873Z,4.47
2023-03-02T10:59:26.213Z,6.70
2023-03-02T11:02:37.727Z,6.30
2023-03-02T11:05:41.517Z,7.70
2023-03-02T11:08:43.453Z,6.00
2023-03-02T11:11:57.105Z,4.03
2023-03-02T11:15:12.316Z,4.40
2023-03-02T11:18:34.778Z,4.30
2023-03-02T11:22:20.640Z,6.30
2023-03-02T11:25:31.885Z,7.45
2023-03-02T11:28:44.781Z,5.75
2023-03-02T11:31:47.060Z,5.10
2023-03-02T11:34:55.924Z,7.20
2023-03-02T11:38:09.288Z,6.15
2023-03-02T11:41:30.272Z,7.90
2023-03-02T11:44:32.184Z,9.15
2023-03-02T11:47:36.100Z,5.40
2023-03-02T11:51:08.892Z,6.82
2023-03-02T11:54:34.733Z,5.40
2023-03-02T11:57:49.688Z,5.93
2023-03-02T12:00:52.597Z,7.63
2023-03-02T12:07:25.171Z,6.15
2023-03-02T12:10:58.966Z,4.50
2023-03-02T12:14:04.157Z,5.03
2023-03-02T12:17:19.321Z,4.72
2023-03-02T12:20:21.215Z,6.28
2023-03-02T12:23:25.222Z,4.07
2023-03-02T12:26:35.582Z,4.38
2023-03-02T12:29:49.722Z,5.60
2023-03-02T12:33:03.126Z,5.35
2023-03-02T12:36:13.709Z,5.55
2023-03-02T12:39:45.100Z,4.57
2023-03-02T12:43:16.225Z,4.80
2023-03-02T12:46:27.945Z,5.43
2023-03-02T12:49:51.381Z,4.47
2023-03-02T12:55:59.901Z,4.88
2023-03-02T12:59:01.805Z,5.10
2023-03-02T13:02:24.264Z,3.63
2023-03-02T13:05:30.512Z,5.40
2023-03-02T13:08:33.020Z,4.25
2023-03-02T13:11:37.099Z,4.20
2023-03-02T13:14:41.607Z,5.53
2023-03-02T13:17:44.755Z,5.90
2023-03-02T13:20:47.056Z,6.57
2023-03-02T13:23:50.663Z,5.57
2023-03-02T13:27:04.816Z,3.80
2023-03-02T13:30:27.274Z,4.22
2023-03-02T13:33:31.421Z,7.30
2023-03-02T13:36:38.695Z,5.68
2023-03-02T13:39:40.576Z,4.78
2023-03-02T13:42:42.896Z,5.35
2023-03-02T13:46:01.498Z,4.82
2023-03-02T13:49:11.064Z,7.03
2023-03-02T13:52:30.305Z,5.13
2023-03-02T13:55:32.737Z,6.07
2023-03-02T13:58:39.683Z,4.97
2023-03-02T14:01:41.844Z,7.53
2023-03-02T14:04:43.776Z,6.95
2023-03-02T14:07:46.550Z,5.10
2023-03-02T14:10:51.741Z,6.65
2023-03-02T14:13:55.022Z,4.90
2023-03-02T14:16:57.061Z,5.00
2023-03-02T14:19:59.154Z,5.27
2023-03-02T14:23:03.573Z,5.33
2023-03-02T14:26:18.256Z,6.38
2023-03-02T14:29:26.748Z,5.20
2023-03-02T14:32:29.423Z,5.28
2023-03-02T14:35:31.325Z,8.50
2023-03-02T14:38:33.239Z,6.00
2023-03-02T14:41:52.598Z,6.72
2023-03-02T14:44:55.420Z,5.07
2023-03-02T14:47:57.347Z,5.15
2023-03-02T14:51:02.721Z,7.53
2023-03-02T14:54:07.792Z,5.70
2023-03-02T14:57:22.508Z,6.85
2023-03-02T15:00:25.334Z,7.45
2023-03-02T15:03:27.841Z,8.82
2023-03-02T15:06:33.301Z,6.18
2023-03-02T15:09:35.381Z,7.75
2023-03-02T15:12:37.553Z,5.53
2023-03-02T15:15:40.893Z,6.05
2023-03-02T15:18:42.936Z,7.47
2023-03-02T15:21:46.530Z,8.57
2023-03-02T15:24:48.429Z,7.03
2023-03-02T15:27:50.711Z,10.40
2023-03-02T15:30:52.682Z,6.30
2023-03-02T15:33:55.887Z,9.50
2023-03-02T15:36:57.773Z,6.78
2023-03-02T15:40:00.948Z,9.00
2023-03-02T15:43:03.101Z,6.90
2023-03-02T15:46:09.503Z,7.23
2023-03-02T15:49:14.148Z,7.30
2023-03-02T15:52:16.327Z,7.78
2023-03-02T15:55:18.464Z,5.65
2023-03-02T15:58:21.966Z,7.80
2023-03-02T16:01:23.958Z,6.28
2023-03-02T16:04:26.953Z,6.28
2023-03-02T16:10:32.157Z,6.68
2023-03-02T16:13:34.803Z,7.33
2023-03-02T16:16:36.775Z,9.27
2023-03-02T16:19:38.703Z,8.95
2023-03-02T16:22:40.630Z,6.22
2023-03-02T16:25:43.870Z,7.72
2023-03-02T16:28:46.212Z,9.23
2023-03-02T16:31:48.943Z,6.88
2023-03-02T16:34:56.631Z,6.05
2023-03-02T16:37:58.703Z,8.88
2023-03-02T16:41:01.382Z,8.30
2023-03-02T16:44:04.269Z,6.93
2023-03-02T16:47:06.217Z,8.60
2023-03-02T16:50:08.752Z,8.75
2023-03-02T16:53:13.490Z,7.20
2023-03-02T16:56:21.074Z,7.03
2023-03-02T16:59:22.985Z,9.43
2023-03-02T17:02:24.882Z,10.68
2023-03-02T17:05:26.714Z,6.32
2023-03-02T17:08:29.075Z,8.65
2023-03-02T17:11:31.970Z,7.53
2023-03-02T17:14:35.733Z,7.78
2023-03-02T17:17:38.865Z,7.38
2023-03-02T17:20:43.236Z,6.68
2023-03-02T17:23:48.152Z,7.72
2023-03-02T17:26:50.125Z,7.32
2023-03-02T17:29:52.257Z,7.72
2023-03-02T17:32:54.202Z,7.13
2023-03-02T17:35:56.208Z,8.55
2023-03-02T17:38:58.124Z,7.70
2023-03-02T17:42:00.059Z,9.52
2023-03-02T17:45:01.993Z,9.10
2023-03-02T17:48:04.334Z,6.85
2023-03-02T17:51:06.437Z,8.70
2023-03-02T17:54:08.361Z,7.40
2023-03-02T17:57:11.309Z,7.60
2023-03-02T18:03:19.917Z,6.50
2023-03-02T18:06:24.201Z,11.10
2023-03-02T18:09:26.166Z,8.30
2023-03-02T18:12:30.064Z,9.07
2023-03-02T18:15:32.035Z,7.82
2023-03-02T18:18:34.695Z,8.35
2023-03-02T18:21:36.739Z,11.55
2023-03-02T18:24:38.751Z,6.43
2023-03-02T18:27:40.647Z,10.77
2023-03-02T18:30:42.926Z,11.18
2023-03-02T18:33:48.764Z,10.05
2023-03-02T18:36:50.906Z,12.48
2023-03-02T18:39:52.832Z,8.53
2023-03-02T18:42:54.775Z,9.38
2023-03-02T18:45:57.836Z,11.57
2023-03-02T18:52:06.924Z,9.40
2023-03-02T18:55:09.289Z,7.88
2023-03-02T18:58:18.753Z,8.05
2023-03-02T19:01:27.517Z,11.70
2023-03-02T19:04:30.877Z,8.48
2023-03-02T19:07:35.085Z,8.90
2023-03-02T19:10:39.659Z,9.95
2023-03-02T19:13:41.606Z,9.13
2023-03-02T19:16:43.565Z,9.63
2023-03-02T19:19:45.536Z,9.32
2023-03-02T19:22:50.101Z,9.18
2023-03-02T19:25:52.617Z,10.63
2023-03-02T19:28:55.552Z,8.63
2023-03-02T19:35:02.579Z,8.07
2023-03-02T19:38:05.833Z,9.43
2023-03-02T19:41:09.387Z,10.25
2023-03-02T19:44:12.646Z,13.20
2023-03-02T19:47:14.846Z,10.13
2023-03-02T19:50:17.898Z,10.85
2023-03-02T19:56:22.047Z,11.60
2023-03-02T19:59:32.568Z,11.98
2023-03-02T20:02:40.168Z,14.80
2023-03-02T20:05:42.269Z,15.85
2023-03-02T20:08:44.211Z,15.17
2023-03-02T20:11:48.741Z,12.48
2023-03-02T20:14:52.904Z,13.88
2023-03-02T20:17:56.262Z,21.13
2023-03-02T20:20:58.263Z,19.02
2023-03-02T20:24:02.301Z,20.85
2023-03-02T20:27:06.972Z,17.95
2023-03-02T20:30:15.012Z,20.33
2023-03-02T20:33:19.227Z,12.50
2023-03-02T20:36:30.966Z,14.55
2023-03-02T20:39:36.335Z,17.13
2023-03-02T20:42:40.050Z,15.63
2023-03-02T20:45:42.152Z,20.23
2023-03-02T20:48:44.131Z,19.30
2023-03-02T20:51:56.317Z,25.75
2023-03-02T20:54:58.320Z,19.15
2023-03-02T20:58:01.243Z,19.05
2023-03-02T21:01:03.317Z,17.25
2023-03-02T21:04:06.834Z,16.67
2023-03-02T21:07:11.489Z,18.88
2023-03-02T21:10:21.540Z,15.77
2023-03-02T21:13:23.619Z,16.45
2023-03-02T21:16:28.476Z,17.55
2023-03-02T21:19:31.035Z,15.73
2023-03-02T21:22:32.891Z,20.63
2023-03-02T21:25:34.806Z,24.00
2023-03-02T21:28:36.965Z,19.27
2023-03-02T21:31:44.076Z,16.73
2023-03-02T21:34:46.049Z,17.20
2023-03-02T21:37:52.886Z,18.48
2023-03-02T21:40:55.155Z,17.80
2023-03-02T21:43:57.882Z,21.05
2023-03-02T21:46:59.834Z,19.10
2023-03-02T21:50:05.554Z,17.00
2023-03-02T21:53:07.733Z,17.20
2023-03-02T21:56:20.569Z,16.60
2023-03-02T21:59:22.536Z,17.75
2023-03-02T22:02:24.372Z,16.77
2023-03-02T22:05:27.002Z,15.85
2023-03-02T22:08:28.915Z,16.17
2023-03-02T22:11:34.426Z,16.40
2023-03-02T22:14:37.078Z,17.27
2023-03-02T22:17:39.379Z,20.45
2023-03-02T22:20:46.773Z,21.23
2023-03-02T22:23:48.996Z,19.35
2023-03-02T22:26:59.565Z,19.73
2023-03-02T22:30:08.120Z,16.33
2023-03-02T22:33:31.773Z,14.93
2023-03-02T22:36:33.651Z,16.02
2023-03-02T22:39:35.531Z,14.32
2023-03-02T22:42:37.384Z,16.23
2023-03-02T22:45:41.302Z,14.90
2023-03-02T22:48:51.794Z,13.98
2023-03-02T22:51:56.043Z,13.43
2023-03-02T22:54:57.947Z,14.63
2023-03-02T22:58:20.048Z,13.20
2023-03-02T23:01:30.452Z,13.93
2023-03-02T23:04:36.587Z,14.07
2023-03-02T23:07:38.488Z,12.60
2023-03-02T23:10:41.931Z,13.02
2023-03-02T23:13:44.750Z,13.27
2023-03-02T23:16:51.452Z,16.23
2023-03-02T23:19:56.142Z,13.98
2023-03-02T23:22:58.123Z,16.13
2023-03-02T23:26:00.020Z,15.85
2023-03-02T23:29:02.038Z,15.05
2023-03-02T23:32:04.386Z,13.68
2023-03-02T23:35:08.880Z,14.00
2023-03-02T23:38:12.142Z,16.92
2023-03-02T23:41:14.680Z,15.27
2023-03-02T23:44:18.339Z,15.65
2023-03-02T23:47:20.251Z,14.57
2023-03-02T23:50:26.261Z,14.32
2023-03-02T23:53:28.251Z,16.98
2023-03-02T23:56:30.135Z,13.45
2023-03-02T23:59:32.058Z,17.42
